createdAt,value
2022-11-10T00:00:38.718Z,85.85
2022-11-10T00:04:07.393Z,85.98
2022-11-10T00:07:35.428Z,86.20
2022-11-10T00:11:07.014Z,85.94
2022-11-10T00:14:51.373Z,86.19
2022-11-10T00:18:18.041Z,86.22
2022-11-10T00:21:44.841Z,86.34
2022-11-10T00:25:13.518Z,86.37
2022-11-10T00:28:40.123Z,86.26
2022-11-10T00:32:07.003Z,86.11
2022-11-10T00:35:33.590Z,86.75
2022-11-10T00:39:00.322Z,86.47
2022-11-10T00:42:28.908Z,85.99
2022-11-10T00:45:56.289Z,86.08
2022-11-10T00:49:23.221Z,86.26
2022-11-10T00:52:49.915Z,86.54
2022-11-10T00:56:16.614Z,86.77
2022-11-10T00:59:44.494Z,86.83
2022-11-10T01:03:16.132Z,86.95
2022-11-10T01:06:42.760Z,86.58
2022-11-10T01:10:11.002Z,86.24
2022-11-10T01:13:38.408Z,87.12
2022-11-10T01:17:06.487Z,86.75
2022-11-10T01:20:35.533Z,86.80
2022-11-10T01:24:02.811Z,86.92
2022-11-10T01:27:29.736Z,86.90
2022-11-10T01:30:59.035Z,86.04
2022-11-10T01:34:27.010Z,86.22
2022-11-10T01:37:53.833Z,86.96
2022-11-10T01:41:20.614Z,86.90
2022-11-10T01:46:00.423Z,86.63
2022-11-10T01:49:32.333Z,86.34
2022-11-10T01:53:04.521Z,86.71
2022-11-10T01:56:40.265Z,86.54
2022-11-10T02:00:09.531Z,86.70
2022-11-10T02:03:44.765Z,86.87
2022-11-10T02:07:13.335Z,86.56
2022-11-10T02:10:40.414Z,86.90
2022-11-10T02:14:07.582Z,86.49
2022-11-10T02:17:34.687Z,87.00
2022-11-10T02:21:05.720Z,86.57
2022-11-10T02:24:33.616Z,86.94
2022-11-10T02:28:00.457Z,86.55
2022-11-10T02:31:27.479Z,85.97
2022-11-10T02:34:54.298Z,86.56
2022-11-10T02:38:22.606Z,86.42
2022-11-10T02:41:49.636Z,86.43
2022-11-10T02:45:16.544Z,86.42
2022-11-10T02:48:43.369Z,85.98
2022-11-10T02:52:11.196Z,86.68
2022-11-10T02:55:39.499Z,86.57
2022-11-10T02:59:06.178Z,86.22
2022-11-10T03:02:33.226Z,85.94
2022-11-10T03:05:59.761Z,86.30
2022-11-10T03:09:26.293Z,86.80
2022-11-10T03:12:57.391Z,87.08
2022-11-10T03:16:24.184Z,87.24
2022-11-10T03:19:51.140Z,87.20
2022-11-10T03:23:19.095Z,87.15
2022-11-10T03:26:45.871Z,86.69
2022-11-10T03:30:14.461Z,86.91
2022-11-10T03:33:41.172Z,86.68
2022-11-10T03:37:08.615Z,86.88
2022-11-10T03:40:56.982Z,86.56
2022-11-10T03:44:22.545Z,87.13
2022-11-10T03:47:51.136Z,87.58
2022-11-10T03:51:18.061Z,88.68
2022-11-10T03:54:44.725Z,89.20
2022-11-10T03:58:11.534Z,89.19
2022-11-10T04:01:38.547Z,89.01
2022-11-10T04:05:26.168Z,89.09
2022-11-10T04:09:02.235Z,89.04
2022-11-10T04:12:46.658Z,88.63
2022-11-10T04:16:14.251Z,88.80
2022-11-10T04:19:41.057Z,88.72
2022-11-10T04:23:26.687Z,87.99
2022-11-10T04:26:53.535Z,88.25
2022-11-10T04:30:20.185Z,88.62
2022-11-10T04:33:48.169Z,89.31
2022-11-10T04:37:15.080Z,88.60
2022-11-10T04:40:43.255Z,89.12
2022-11-10T04:44:10.057Z,89.60
2022-11-10T04:47:36.837Z,88.76
2022-11-10T04:51:06.414Z,89.18
2022-11-10T04:58:11.662Z,88.50
2022-11-10T05:01:38.547Z,88.76
2022-11-10T05:05:06.896Z,87.71
2022-11-10T05:08:33.994Z,88.64
2022-11-10T05:12:01.016Z,87.62
2022-11-10T05:15:29.727Z,88.03
2022-11-10T05:18:58.231Z,87.39
2022-11-10T05:22:25.448Z,87.24
2022-11-10T05:25:52.334Z,87.89
2022-11-10T05:29:19.507Z,87.62
2022-11-10T05:32:47.978Z,87.53
2022-11-10T05:36:14.614Z,87.23
2022-11-10T05:39:41.228Z,86.33
2022-11-10T05:43:08.126Z,87.30
2022-11-10T05:46:35.268Z,87.72
2022-11-10T05:50:04.675Z,87.46
2022-11-10T05:53:31.852Z,87.27
2022-11-10T05:56:58.535Z,86.87
2022-11-10T06:00:28.259Z,86.10
2022-11-10T06:03:55.228Z,87.10
2022-11-10T06:07:23.628Z,87.32
2022-11-10T06:10:50.840Z,87.53
2022-11-10T06:14:17.725Z,86.90
2022-11-10T06:17:45.258Z,86.50
2022-11-10T06:21:12.327Z,87.43
2022-11-10T06:24:40.887Z,87.08
2022-11-10T06:28:09.073Z,87.04
2022-11-10T06:31:35.874Z,87.55
2022-11-10T06:35:02.560Z,86.58
2022-11-10T06:38:29.293Z,86.39
2022-11-10T06:41:57.377Z,86.79
2022-11-10T06:45:28.225Z,87.02
2022-11-10T06:48:54.861Z,86.28
2022-11-10T06:52:22.075Z,86.43
2022-11-10T06:55:48.869Z,86.45
2022-11-10T06:59:17.026Z,86.72
2022-11-10T07:03:00.800Z,87.21
2022-11-10T07:06:27.841Z,87.40
2022-11-10T07:09:54.580Z,86.59
2022-11-10T07:13:22.706Z,87.30
2022-11-10T07:16:50.944Z,87.20
2022-11-10T07:20:17.664Z,87.49
2022-11-10T07:23:44.090Z,87.13
2022-11-10T07:27:11.196Z,87.22
2022-11-10T07:30:38.211Z,86.94
2022-11-10T07:34:06.545Z,88.08
2022-11-10T07:37:32.965Z,87.92
2022-11-10T07:40:59.546Z,87.97
2022-11-10T07:44:27.688Z,88.25
2022-11-10T07:48:00.494Z,86.74
2022-11-10T07:51:28.756Z,86.42
2022-11-10T07:54:55.417Z,87.17
2022-11-10T07:58:22.065Z,86.39
2022-11-10T08:01:48.907Z,84.29
2022-11-10T08:05:15.530Z,83.06
2022-11-10T08:08:44.024Z,82.43
2022-11-10T08:12:11.278Z,80.72
2022-11-10T08:15:38.957Z,81.27
2022-11-10T08:19:05.984Z,81.10
2022-11-10T08:22:33.051Z,80.30
2022-11-10T08:26:02.333Z,82.04
2022-11-10T08:29:29.529Z,83.79
2022-11-10T08:32:58.446Z,83.99
2022-11-10T08:36:25.471Z,85.54
2022-11-10T08:39:51.945Z,85.08
2022-11-10T08:43:20.372Z,84.58
2022-11-10T08:46:47.597Z,82.98
2022-11-10T08:50:14.105Z,82.99
2022-11-10T08:53:40.499Z,82.30
2022-11-10T08:57:07.472Z,83.37
2022-11-10T09:00:36.444Z,82.38
2022-11-10T09:04:03.073Z,81.95
2022-11-10T09:07:29.832Z,80.98
2022-11-10T09:11:04.524Z,80.29
2022-11-10T09:14:31.554Z,78.30
2022-11-10T09:18:00.777Z,75.61
2022-11-10T09:21:27.456Z,72.42
2022-11-10T09:24:54.416Z,71.08
2022-11-10T09:28:23.837Z,72.10
2022-11-10T09:31:50.882Z,72.20
2022-11-10T09:35:19.482Z,73.70
2022-11-10T09:38:47.312Z,74.48
2022-11-10T09:42:32.782Z,75.55
2022-11-10T09:46:04.689Z,76.04
2022-11-10T09:49:45.562Z,75.62
2022-11-10T09:53:20.605Z,74.83
2022-11-10T09:56:47.384Z,74.34
2022-11-10T10:00:16.702Z,75.11
2022-11-10T10:03:52.527Z,75.04
2022-11-10T10:07:26.088Z,76.21
2022-11-10T10:11:10.405Z,76.57
2022-11-10T10:15:03.451Z,75.54
2022-11-10T10:18:41.939Z,75.43
2022-11-10T10:22:32.618Z,75.61
2022-11-10T10:26:01.675Z,76.32
2022-11-10T10:29:37.626Z,76.07
2022-11-10T10:33:17.131Z,77.41
2022-11-10T10:36:45.384Z,78.14
2022-11-10T10:40:18.383Z,79.02
2022-11-10T10:43:51.127Z,79.68
2022-11-10T10:47:17.856Z,79.06
2022-11-10T10:50:46.324Z,75.43
2022-11-10T10:54:29.105Z,75.63
2022-11-10T10:58:02.130Z,72.08
2022-11-10T11:01:33.500Z,73.99
2022-11-10T11:05:17.687Z,73.33
2022-11-10T11:09:00.820Z,69.65
2022-11-10T11:12:31.528Z,70.02
2022-11-10T11:16:00.481Z,67.26
2022-11-10T11:19:33.664Z,65.42
2022-11-10T11:23:18.188Z,64.12
2022-11-10T11:27:00.601Z,63.30
2022-11-10T11:30:39.466Z,59.97
2022-11-10T11:34:21.067Z,57.06
2022-11-10T11:38:08.646Z,58.77
2022-11-10T11:41:47.838Z,61.19
2022-11-10T11:45:27.878Z,64.11
2022-11-10T11:49:31.990Z,68.31
2022-11-10T11:53:15.708Z,67.60
2022-11-10T11:56:47.913Z,66.21
2022-11-10T12:04:40.308Z,62.22
2022-11-10T12:08:26.696Z,63.77
2022-11-10T12:12:15.456Z,65.25
2022-11-10T12:16:00.259Z,65.35
2022-11-10T12:19:36.387Z,67.28
2022-11-10T12:23:17.023Z,68.14
2022-11-10T12:26:55.529Z,68.95
2022-11-10T12:30:22.597Z,66.21
2022-11-10T12:33:57.120Z,65.10
2022-11-10T12:37:34.369Z,66.63
2022-11-10T12:41:10.567Z,64.44
2022-11-10T12:44:44.112Z,64.85
2022-11-10T12:48:13.445Z,65.55
2022-11-10T12:51:52.275Z,64.47
2022-11-10T12:55:22.305Z,60.85
2022-11-10T12:59:37.510Z,62.16
2022-11-10T13:03:05.011Z,62.91
2022-11-10T13:06:36.634Z,61.29
2022-11-10T13:10:24.023Z,61.95
2022-11-10T13:13:59.923Z,60.55
2022-11-10T13:17:59.350Z,61.33
2022-11-10T13:22:05.375Z,60.38
2022-11-10T13:26:02.040Z,60.51
2022-11-10T13:29:56.957Z,62.53
2022-11-10T13:33:38.993Z,59.74
2022-11-10T13:37:46.423Z,61.26
2022-11-10T13:41:27.012Z,61.07
2022-11-10T13:45:15.532Z,60.94
2022-11-10T13:49:28.578Z,58.74
2022-11-10T13:53:18.304Z,59.45
2022-11-10T13:57:11.671Z,58.08
2022-11-10T14:00:39.879Z,58.94
2022-11-10T14:04:06.729Z,57.77
2022-11-10T14:07:43.470Z,58.26
2022-11-10T14:11:35.201Z,57.74
2022-11-10T14:15:06.449Z,57.69
2022-11-10T14:18:43.832Z,59.22
2022-11-10T14:22:23.807Z,59.94
2022-11-10T14:26:00.100Z,58.97
2022-11-10T14:29:38.384Z,60.44
2022-11-10T14:33:11.013Z,60.47
2022-11-10T14:36:53.304Z,59.90
2022-11-10T14:40:21.940Z,59.74
2022-11-10T14:44:02.345Z,60.56
2022-11-10T14:47:31.832Z,60.36
2022-11-10T14:51:06.765Z,60.65
2022-11-10T14:54:36.500Z,62.51
2022-11-10T14:58:13.498Z,62.34
2022-11-10T15:01:49.232Z,63.00
2022-11-10T15:05:16.706Z,63.07
2022-11-10T15:08:43.543Z,64.31
2022-11-10T15:12:28.589Z,66.78
2022-11-10T15:16:22.843Z,67.62
2022-11-10T15:19:56.340Z,67.55
2022-11-10T15:23:33.632Z,68.11
2022-11-10T15:27:01.439Z,68.79
2022-11-10T15:30:31.823Z,69.71
2022-11-10T15:34:01.619Z,70.35
2022-11-10T15:37:31.548Z,71.61
2022-11-10T15:41:15.436Z,72.96
2022-11-10T15:44:46.752Z,73.26
2022-11-10T15:48:18.011Z,73.01
2022-11-10T15:51:44.776Z,74.40
2022-11-10T15:55:21.361Z,75.39
2022-11-10T15:58:51.464Z,76.75
2022-11-10T16:02:23.455Z,77.13
2022-11-10T16:05:51.744Z,78.37
2022-11-10T16:09:18.350Z,78.37
2022-11-10T16:12:45.182Z,79.12
2022-11-10T16:16:16.462Z,79.08
2022-11-10T16:19:42.937Z,78.90
2022-11-10T16:23:11.217Z,79.87
2022-11-10T16:26:38.923Z,81.44
2022-11-10T16:30:14.157Z,81.23
2022-11-10T16:33:41.762Z,82.22
2022-11-10T16:37:11.939Z,82.84
2022-11-10T16:40:40.270Z,82.43
2022-11-10T16:44:11.412Z,83.09
2022-11-10T16:47:38.223Z,83.77
2022-11-10T16:51:05.852Z,83.50
2022-11-10T16:54:32.960Z,84.03
2022-11-10T16:58:01.132Z,84.04
2022-11-10T17:01:30.865Z,83.66
2022-11-10T17:04:58.026Z,83.95
2022-11-10T17:08:28.789Z,84.33
2022-11-10T17:11:55.820Z,84.00
2022-11-10T17:15:24.294Z,84.14
2022-11-10T17:18:52.481Z,84.68
2022-11-10T17:22:22.728Z,84.65
2022-11-10T17:25:54.040Z,84.78
2022-11-10T17:29:24.169Z,84.41
2022-11-10T17:33:09.550Z,85.40
2022-11-10T17:36:36.748Z,85.90
2022-11-10T17:40:17.873Z,85.16
2022-11-10T17:43:46.129Z,85.48
2022-11-10T17:47:13.782Z,85.46
2022-11-10T17:50:46.772Z,86.08
2022-11-10T17:54:16.544Z,85.85
2022-11-10T17:57:43.348Z,85.93
2022-11-10T18:01:17.868Z,86.11
2022-11-10T18:04:44.644Z,85.39
2022-11-10T18:08:15.378Z,85.95
2022-11-10T18:11:41.939Z,85.73
2022-11-10T18:15:13.203Z,83.95
2022-11-10T18:18:40.224Z,84.20
2022-11-10T18:22:07.359Z,84.31
2022-11-10T18:25:35.603Z,85.28
2022-11-10T18:29:03.814Z,85.89
2022-11-10T18:32:30.856Z,86.11
2022-11-10T18:36:00.422Z,86.34
2022-11-10T18:39:27.532Z,86.48
2022-11-10T18:43:05.972Z,86.82
2022-11-10T18:46:34.328Z,86.66
2022-11-10T18:50:00.996Z,86.58
2022-11-10T18:53:27.799Z,86.44
2022-11-10T18:56:54.842Z,87.01
2022-11-10T19:00:23.306Z,86.53
2022-11-10T19:03:50.734Z,86.91
2022-11-10T19:07:17.991Z,86.75
2022-11-10T19:10:44.701Z,87.02
2022-11-10T19:14:11.516Z,86.43
2022-11-10T19:17:39.963Z,87.21
2022-11-10T19:21:08.298Z,87.26
2022-11-10T19:24:53.600Z,86.90
2022-11-10T19:28:23.193Z,87.64
2022-11-10T19:31:50.480Z,87.75
2022-11-10T19:35:19.065Z,87.52
2022-11-10T19:38:46.772Z,87.89
2022-11-10T19:42:13.998Z,87.78
2022-11-10T19:45:42.178Z,87.29
2022-11-10T19:49:08.938Z,87.30
2022-11-10T19:52:37.291Z,87.55
2022-11-10T19:56:07.486Z,87.83
2022-11-10T19:59:34.675Z,87.69
2022-11-10T20:03:01.386Z,87.32
2022-11-10T20:06:28.703Z,87.91
2022-11-10T20:09:57.003Z,87.80
2022-11-10T20:13:25.545Z,87.44
2022-11-10T20:16:52.578Z,87.83
2022-11-10T20:20:20.333Z,87.92
2022-11-10T20:23:52.384Z,87.72
2022-11-10T20:27:21.942Z,87.65
2022-11-10T20:30:49.083Z,87.99
2022-11-10T20:34:16.355Z,88.34
2022-11-10T20:37:44.048Z,87.73
2022-11-10T20:41:16.396Z,88.14
2022-11-10T20:44:44.524Z,88.17
2022-11-10T20:48:11.324Z,88.20
2022-11-10T20:51:38.673Z,88.21
2022-11-10T20:55:06.891Z,88.00
2022-11-10T20:58:34.549Z,87.73
2022-11-10T21:02:02.913Z,87.92
2022-11-10T21:05:29.658Z,88.13
2022-11-10T21:08:56.973Z,88.96
2022-11-10T21:12:40.872Z,88.40
2022-11-10T21:16:08.618Z,88.00
2022-11-10T21:19:37.243Z,88.06
2022-11-10T21:23:04.318Z,87.99
2022-11-10T21:26:31.680Z,88.13
2022-11-10T21:29:58.963Z,87.83
2022-11-10T21:33:25.889Z,88.06
2022-11-10T21:36:53.971Z,88.02
2022-11-10T21:40:21.112Z,88.12
2022-11-10T21:43:47.857Z,87.50
2022-11-10T21:47:15.276Z,88.25
2022-11-10T21:50:42.101Z,88.22
2022-11-10T21:54:12.248Z,88.06
2022-11-10T21:57:39.101Z,87.74
2022-11-10T22:01:09.164Z,88.35
2022-11-10T22:04:36.137Z,88.09
2022-11-10T22:08:04.335Z,88.18
2022-11-10T22:11:49.922Z,88.36
2022-11-10T22:15:34.479Z,87.90
2022-11-10T22:19:02.230Z,87.95
2022-11-10T22:22:29.289Z,87.56
2022-11-10T22:25:56.122Z,87.35
2022-11-10T22:29:31.214Z,87.77
2022-11-10T22:33:18.965Z,87.66
2022-11-10T22:36:46.878Z,87.66
2022-11-10T22:40:32.368Z,88.03
2022-11-10T22:44:09.169Z,88.18
2022-11-10T22:47:57.445Z,88.09
2022-11-10T22:51:24.702Z,87.95
2022-11-10T22:54:52.004Z,88.44
2022-11-10T22:58:18.816Z,87.77
2022-11-10T23:01:49.100Z,88.19
2022-11-10T23:05:17.541Z,87.69
2022-11-10T23:08:45.272Z,88.12
2022-11-10T23:12:12.233Z,88.40
2022-11-10T23:15:38.997Z,88.47
2022-11-10T23:19:05.719Z,88.83
2022-11-10T23:22:34.300Z,88.85
2022-11-10T23:26:03.596Z,88.75
2022-11-10T23:29:30.185Z,88.71
2022-11-10T23:32:57.086Z,88.38
2022-11-10T23:36:26.594Z,88.75
2022-11-10T23:39:55.087Z,87.87
2022-11-10T23:43:22.099Z,87.97
2022-11-10T23:46:49.206Z,88.38
2022-11-10T23:50:16.003Z,88.17
2022-11-10T23:53:44.949Z,88.81
2022-11-10T23:57:13.980Z,88.19
